sensor_id;sensor_type;location;lat;lon;timestamp;temperature;humidity
23633;DHT22;11993;48.748;9.166;2022-08-19T00:01:45;21.90;63.60
23633;DHT22;11993;48.748;9.166;2022-08-19T00:04:12;21.90;63.70
23633;DHT22;11993;48.748;9.166;2022-08-19T00:06:40;21.80;63.70
23633;DHT22;11993;48.748;9.166;2022-08-19T00:09:08;21.80;63.80
23633;DHT22;11993;48.748;9.166;2022-08-19T00:11:34;21.90;63.40
23633;DHT22;11993;48.748;9.166;2022-08-19T00:14:02;21.90;63.40
23633;DHT22;11993;48.748;9.166;2022-08-19T00:16:28;21.90;63.40
23633;DHT22;11993;48.748;9.166;2022-08-19T00:18:54;21.90;63.60
23633;DHT22;11993;48.748;9.166;2022-08-19T00:21:21;21.80;63.80
23633;DHT22;11993;48.748;9.166;2022-08-19T00:23:47;21.90;63.50
23633;DHT22;11993;48.748;9.166;2022-08-19T00:26:13;21.90;63.70
23633;DHT22;11993;48.748;9.166;2022-08-19T00:28:38;21.90;63.80
23633;DHT22;11993;48.748;9.166;2022-08-19T00:31:06;21.80;63.90
23633;DHT22;11993;48.748;9.166;2022-08-19T00:33:32;21.80;64.00
23633;DHT22;11993;48.748;9.166;2022-08-19T00:35:59;21.90;64.10
23633;DHT22;11993;48.748;9.166;2022-08-19T00:38:25;21.80;64.00
23633;DHT22;11993;48.748;9.166;2022-08-19T00:40:51;21.80;64.10
23633;DHT22;11993;48.748;9.166;2022-08-19T00:43:20;21.70;64.30
23633;DHT22;11993;48.748;9.166;2022-08-19T00:45:46;21.70;64.40
23633;DHT22;11993;48.748;9.166;2022-08-19T00:48:12;21.60;64.50
23633;DHT22;11993;48.748;9.166;2022-08-19T00:50:40;21.60;64.70
23633;DHT22;11993;48.748;9.166;2022-08-19T00:53:09;21.60;64.80
23633;DHT22;11993;48.748;9.166;2022-08-19T00:55:35;21.60;64.90
23633;DHT22;11993;48.748;9.166;2022-08-19T00:58:05;21.60;65.00
23633;DHT22;11993;48.748;9.166;2022-08-19T01:00:33;21.60;65.20
23633;DHT22;11993;48.748;9.166;2022-08-19T01:03:03;21.60;65.40
23633;DHT22;11993;48.748;9.166;2022-08-19T01:05:29;21.60;65.30
23633;DHT22;11993;48.748;9.166;2022-08-19T01:07:56;21.60;65.60
23633;DHT22;11993;48.748;9.166;2022-08-19T01:10:25;21.60;65.40
23633;DHT22;11993;48.748;9.166;2022-08-19T01:12:52;21.60;65.50
23633;DHT22;11993;48.748;9.166;2022-08-19T01:15:23;21.60;65.50
23633;DHT22;11993;48.748;9.166;2022-08-19T01:17:50;21.70;65.30
23633;DHT22;11993;48.748;9.166;2022-08-19T01:20:20;21.70;64.90
23633;DHT22;11993;48.748;9.166;2022-08-19T01:22:54;21.80;64.70
23633;DHT22;11993;48.748;9.166;2022-08-19T01:25:24;21.70;65.00
23633;DHT22;11993;48.748;9.166;2022-08-19T01:27:51;21.70;65.00
23633;DHT22;11993;48.748;9.166;2022-08-19T01:30:26;21.60;65.10
23633;DHT22;11993;48.748;9.166;2022-08-19T01:32:53;21.70;65.00
23633;DHT22;11993;48.748;9.166;2022-08-19T01:35:19;21.70;64.90
23633;DHT22;11993;48.748;9.166;2022-08-19T01:37:48;21.70;64.90
23633;DHT22;11993;48.748;9.166;2022-08-19T01:40:15;21.70;64.90
23633;DHT22;11993;48.748;9.166;2022-08-19T01:42:41;21.60;65.10
23633;DHT22;11993;48.748;9.166;2022-08-19T01:45:06;21.70;64.90
23633;DHT22;11993;48.748;9.166;2022-08-19T01:47:34;21.60;65.10
23633;DHT22;11993;48.748;9.166;2022-08-19T01:50:00;21.60;65.30
23633;DHT22;11993;48.748;9.166;2022-08-19T01:52:26;21.60;65.60
23633;DHT22;11993;48.748;9.166;2022-08-19T01:54:52;21.60;65.60
23633;DHT22;11993;48.748;9.166;2022-08-19T01:57:18;21.50;65.80
23633;DHT22;11993;48.748;9.166;2022-08-19T01:59:44;21.50;65.80
23633;DHT22;11993;48.748;9.166;2022-08-19T02:02:10;21.50;65.90
23633;DHT22;11993;48.748;9.166;2022-08-19T02:04:36;21.60;65.80
23633;DHT22;11993;48.748;9.166;2022-08-19T02:07:03;21.60;65.60
23633;DHT22;11993;48.748;9.166;2022-08-19T02:09:30;21.60;65.50
23633;DHT22;11993;48.748;9.166;2022-08-19T02:11:56;21.60;65.70
23633;DHT22;11993;48.748;9.166;2022-08-19T02:14:21;21.60;65.80
23633;DHT22;11993;48.748;9.166;2022-08-19T02:16:47;21.50;66.10
23633;DHT22;11993;48.748;9.166;2022-08-19T02:19:13;21.50;66.40
23633;DHT22;11993;48.748;9.166;2022-08-19T02:21:38;21.40;66.60
23633;DHT22;11993;48.748;9.166;2022-08-19T02:24:04;21.30;66.90
23633;DHT22;11993;48.748;9.166;2022-08-19T02:26:31;21.40;66.70
23633;DHT22;11993;48.748;9.166;2022-08-19T02:28:56;21.40;66.70
23633;DHT22;11993;48.748;9.166;2022-08-19T02:31:24;21.50;66.70
23633;DHT22;11993;48.748;9.166;2022-08-19T02:33:50;21.40;66.80
23633;DHT22;11993;48.748;9.166;2022-08-19T02:36:16;21.30;67.00
23633;DHT22;11993;48.748;9.166;2022-08-19T02:38:43;21.20;67.30
23633;DHT22;11993;48.748;9.166;2022-08-19T02:43:39;21.20;67.40
23633;DHT22;11993;48.748;9.166;2022-08-19T02:46:13;21.30;67.30
23633;DHT22;11993;48.748;9.166;2022-08-19T02:48:39;21.30;67.30
23633;DHT22;11993;48.748;9.166;2022-08-19T02:51:04;21.30;67.20
23633;DHT22;11993;48.748;9.166;2022-08-19T02:53:30;21.20;67.40
23633;DHT22;11993;48.748;9.166;2022-08-19T02:55:56;21.20;67.50
23633;DHT22;11993;48.748;9.166;2022-08-19T02:58:22;21.20;67.60
23633;DHT22;11993;48.748;9.166;2022-08-19T03:00:51;21.20;67.80
23633;DHT22;11993;48.748;9.166;2022-08-19T03:03:18;21.10;67.80
23633;DHT22;11993;48.748;9.166;2022-08-19T03:05:44;21.10;67.80
23633;DHT22;11993;48.748;9.166;2022-08-19T03:08:10;21.10;68.20
23633;DHT22;11993;48.748;9.166;2022-08-19T03:10:47;21.10;68.60
23633;DHT22;11993;48.748;9.166;2022-08-19T03:13:14;21.10;68.90
23633;DHT22;11993;48.748;9.166;2022-08-19T03:15:46;21.00;69.40
23633;DHT22;11993;48.748;9.166;2022-08-19T03:18:13;21.10;69.60
23633;DHT22;11993;48.748;9.166;2022-08-19T03:20:47;21.00;69.60
23633;DHT22;11993;48.748;9.166;2022-08-19T03:23:13;20.90;69.80
23633;DHT22;11993;48.748;9.166;2022-08-19T03:25:40;20.90;69.70
23633;DHT22;11993;48.748;9.166;2022-08-19T03:28:12;20.90;69.70
23633;DHT22;11993;48.748;9.166;2022-08-19T03:30:40;20.80;69.90
23633;DHT22;11993;48.748;9.166;2022-08-19T03:33:07;20.80;69.80
23633;DHT22;11993;48.748;9.166;2022-08-19T03:35:33;20.80;70.00
23633;DHT22;11993;48.748;9.166;2022-08-19T03:38:02;20.80;69.90
23633;DHT22;11993;48.748;9.166;2022-08-19T03:40:28;20.70;70.00
23633;DHT22;11993;48.748;9.166;2022-08-19T03:42:56;20.70;69.80
23633;DHT22;11993;48.748;9.166;2022-08-19T03:45:22;20.70;69.80
23633;DHT22;11993;48.748;9.166;2022-08-19T03:47:48;20.60;70.40
23633;DHT22;11993;48.748;9.166;2022-08-19T03:50:13;20.70;70.30
23633;DHT22;11993;48.748;9.166;2022-08-19T03:52:39;20.60;70.20
23633;DHT22;11993;48.748;9.166;2022-08-19T03:55:05;20.60;70.20
23633;DHT22;11993;48.748;9.166;2022-08-19T03:57:31;20.60;70.20
23633;DHT22;11993;48.748;9.166;2022-08-19T03:59:58;20.60;70.40
23633;DHT22;11993;48.748;9.166;2022-08-19T04:02:23;20.50;70.70
23633;DHT22;11993;48.748;9.166;2022-08-19T04:04:53;20.60;70.60
23633;DHT22;11993;48.748;9.166;2022-08-19T04:07:20;20.60;70.50
23633;DHT22;11993;48.748;9.166;2022-08-19T04:09:47;20.50;70.50
23633;DHT22;11993;48.748;9.166;2022-08-19T04:12:13;20.50;70.80
23633;DHT22;11993;48.748;9.166;2022-08-19T04:14:40;20.60;70.70
23633;DHT22;11993;48.748;9.166;2022-08-19T04:17:06;20.60;70.60
23633;DHT22;11993;48.748;9.166;2022-08-19T04:19:34;20.50;70.60
23633;DHT22;11993;48.748;9.166;2022-08-19T04:22:00;20.60;70.40
23633;DHT22;11993;48.748;9.166;2022-08-19T04:24:26;20.50;70.40
23633;DHT22;11993;48.748;9.166;2022-08-19T04:26:52;20.50;70.70
23633;DHT22;11993;48.748;9.166;2022-08-19T04:29:23;20.50;70.70
23633;DHT22;11993;48.748;9.166;2022-08-19T04:31:51;20.50;70.70
23633;DHT22;11993;48.748;9.166;2022-08-19T04:34:20;20.50;70.70
23633;DHT22;11993;48.748;9.166;2022-08-19T04:36:50;20.50;70.80
23633;DHT22;11993;48.748;9.166;2022-08-19T04:39:22;20.40;71.00
23633;DHT22;11993;48.748;9.166;2022-08-19T04:42:08;20.40;70.80
23633;DHT22;11993;48.748;9.166;2022-08-19T04:44:52;20.50;70.70
23633;DHT22;11993;48.748;9.166;2022-08-19T04:47:18;20.40;71.00
23633;DHT22;11993;48.748;9.166;2022-08-19T04:49:43;20.40;71.10
23633;DHT22;11993;48.748;9.166;2022-08-19T04:52:09;20.40;70.90
23633;DHT22;11993;48.748;9.166;2022-08-19T04:54:34;20.40;70.80
23633;DHT22;11993;48.748;9.166;2022-08-19T04:57:00;20.30;71.20
23633;DHT22;11993;48.748;9.166;2022-08-19T04:59:25;20.30;71.10
23633;DHT22;11993;48.748;9.166;2022-08-19T05:01:51;20.40;71.10
23633;DHT22;11993;48.748;9.166;2022-08-19T05:04:20;20.40;71.00
23633;DHT22;11993;48.748;9.166;2022-08-19T05:06:47;20.40;71.10
23633;DHT22;11993;48.748;9.166;2022-08-19T05:09:14;20.40;71.10
23633;DHT22;11993;48.748;9.166;2022-08-19T05:11:40;20.40;71.10
23633;DHT22;11993;48.748;9.166;2022-08-19T05:14:07;20.30;71.30
23633;DHT22;11993;48.748;9.166;2022-08-19T05:16:33;20.40;71.10
23633;DHT22;11993;48.748;9.166;2022-08-19T05:18:59;20.40;71.10
23633;DHT22;11993;48.748;9.166;2022-08-19T05:21:43;20.40;71.00
23633;DHT22;11993;48.748;9.166;2022-08-19T05:24:29;20.50;70.60
23633;DHT22;11993;48.748;9.166;2022-08-19T05:26:55;20.50;70.80
23633;DHT22;11993;48.748;9.166;2022-08-19T05:29:26;20.50;70.80
23633;DHT22;11993;48.748;9.166;2022-08-19T05:31:53;20.50;70.90
23633;DHT22;11993;48.748;9.166;2022-08-19T05:34:20;20.60;70.40
23633;DHT22;11993;48.748;9.166;2022-08-19T05:36:50;20.50;70.70
23633;DHT22;11993;48.748;9.166;2022-08-19T05:39:19;20.50;70.80
23633;DHT22;11993;48.748;9.166;2022-08-19T05:41:47;20.50;70.80
23633;DHT22;11993;48.748;9.166;2022-08-19T05:44:13;20.50;70.70
23633;DHT22;11993;48.748;9.166;2022-08-19T05:46:42;20.60;70.70
23633;DHT22;11993;48.748;9.166;2022-08-19T05:49:08;20.60;70.50
23633;DHT22;11993;48.748;9.166;2022-08-19T05:51:35;20.60;70.80
23633;DHT22;11993;48.748;9.166;2022-08-19T05:54:02;20.60;70.60
23633;DHT22;11993;48.748;9.166;2022-08-19T05:56:28;20.60;70.50
23633;DHT22;11993;48.748;9.166;2022-08-19T05:58:55;20.60;70.50
23633;DHT22;11993;48.748;9.166;2022-08-19T06:01:21;20.60;70.40
23633;DHT22;11993;48.748;9.166;2022-08-19T06:03:47;20.60;70.40
23633;DHT22;11993;48.748;9.166;2022-08-19T06:06:15;20.60;70.30
23633;DHT22;11993;48.748;9.166;2022-08-19T06:08:41;20.60;70.20
23633;DHT22;11993;48.748;9.166;2022-08-19T06:11:16;20.60;70.60
23633;DHT22;11993;48.748;9.166;2022-08-19T06:13:43;20.60;70.70
23633;DHT22;11993;48.748;9.166;2022-08-19T06:16:10;20.60;70.70
23633;DHT22;11993;48.748;9.166;2022-08-19T06:18:35;20.60;70.50
23633;DHT22;11993;48.748;9.166;2022-08-19T06:21:01;20.60;70.60
23633;DHT22;11993;48.748;9.166;2022-08-19T06:23:30;20.60;70.90
23633;DHT22;11993;48.748;9.166;2022-08-19T06:25:56;20.60;70.70
23633;DHT22;11993;48.748;9.166;2022-08-19T06:28:21;20.60;70.70
23633;DHT22;11993;48.748;9.166;2022-08-19T06:30:49;20.60;70.90
23633;DHT22;11993;48.748;9.166;2022-08-19T06:33:15;20.60;71.00
23633;DHT22;11993;48.748;9.166;2022-08-19T06:35:41;20.60;71.20
23633;DHT22;11993;48.748;9.166;2022-08-19T06:38:07;20.50;71.50
23633;DHT22;11993;48.748;9.166;2022-08-19T06:40:32;20.60;72.00
23633;DHT22;11993;48.748;9.166;2022-08-19T06:42:58;20.60;72.20
23633;DHT22;11993;48.748;9.166;2022-08-19T06:45:25;20.50;72.70
23633;DHT22;11993;48.748;9.166;2022-08-19T06:47:52;20.50;72.80
23633;DHT22;11993;48.748;9.166;2022-08-19T06:50:24;20.60;73.00
23633;DHT22;11993;48.748;9.166;2022-08-19T06:52:50;20.60;73.40
23633;DHT22;11993;48.748;9.166;2022-08-19T06:55:15;20.50;73.60
23633;DHT22;11993;48.748;9.166;2022-08-19T06:57:41;20.60;73.70
23633;DHT22;11993;48.748;9.166;2022-08-19T07:00:08;20.50;73.70
23633;DHT22;11993;48.748;9.166;2022-08-19T07:02:40;20.60;74.00
23633;DHT22;11993;48.748;9.166;2022-08-19T07:05:06;20.50;74.00
23633;DHT22;11993;48.748;9.166;2022-08-19T07:07:32;20.40;74.10
23633;DHT22;11993;48.748;9.166;2022-08-19T07:09:58;20.40;73.90
23633;DHT22;11993;48.748;9.166;2022-08-19T07:12:23;20.40;74.10
23633;DHT22;11993;48.748;9.166;2022-08-19T07:14:49;20.50;74.10
23633;DHT22;11993;48.748;9.166;2022-08-19T07:17:14;20.50;74.20
23633;DHT22;11993;48.748;9.166;2022-08-19T07:19:41;20.40;74.40
23633;DHT22;11993;48.748;9.166;2022-08-19T07:22:09;20.40;74.40
23633;DHT22;11993;48.748;9.166;2022-08-19T07:24:35;20.50;74.20
23633;DHT22;11993;48.748;9.166;2022-08-19T07:27:02;20.40;74.30
23633;DHT22;11993;48.748;9.166;2022-08-19T07:29:30;20.50;74.20
23633;DHT22;11993;48.748;9.166;2022-08-19T07:31:59;20.50;74.00
23633;DHT22;11993;48.748;9.166;2022-08-19T07:34:25;20.40;74.20
23633;DHT22;11993;48.748;9.166;2022-08-19T07:36:52;20.50;74.20
23633;DHT22;11993;48.748;9.166;2022-08-19T07:39:28;20.40;73.90
23633;DHT22;11993;48.748;9.166;2022-08-19T07:41:55;20.40;74.20
23633;DHT22;11993;48.748;9.166;2022-08-19T07:44:21;20.30;74.60
23633;DHT22;11993;48.748;9.166;2022-08-19T07:46:53;20.30;74.50
23633;DHT22;11993;48.748;9.166;2022-08-19T07:49:21;20.30;74.20
23633;DHT22;11993;48.748;9.166;2022-08-19T07:51:49;20.30;74.30
23633;DHT22;11993;48.748;9.166;2022-08-19T07:54:16;20.30;74.20
23633;DHT22;11993;48.748;9.166;2022-08-19T07:56:41;20.30;74.30
23633;DHT22;11993;48.748;9.166;2022-08-19T07:59:07;20.20;74.60
23633;DHT22;11993;48.748;9.166;2022-08-19T08:01:34;20.30;74.40
23633;DHT22;11993;48.748;9.166;2022-08-19T08:04:00;20.30;74.80
23633;DHT22;11993;48.748;9.166;2022-08-19T08:06:44;20.30;74.50
23633;DHT22;11993;48.748;9.166;2022-08-19T08:09:35;20.30;74.20
23633;DHT22;11993;48.748;9.166;2022-08-19T08:12:11;20.30;74.30
23633;DHT22;11993;48.748;9.166;2022-08-19T08:14:43;20.30;74.70
23633;DHT22;11993;48.748;9.166;2022-08-19T08:17:10;20.40;74.80
23633;DHT22;11993;48.748;9.166;2022-08-19T08:19:36;20.30;74.90
23633;DHT22;11993;48.748;9.166;2022-08-19T08:22:02;20.30;75.00
23633;DHT22;11993;48.748;9.166;2022-08-19T08:24:29;20.30;75.10
23633;DHT22;11993;48.748;9.166;2022-08-19T08:27:00;20.30;75.00
23633;DHT22;11993;48.748;9.166;2022-08-19T08:29:27;20.30;75.30
23633;DHT22;11993;48.748;9.166;2022-08-19T08:31:54;20.20;75.30
23633;DHT22;11993;48.748;9.166;2022-08-19T08:34:20;20.10;75.70
23633;DHT22;11993;48.748;9.166;2022-08-19T08:36:46;20.10;76.50
23633;DHT22;11993;48.748;9.166;2022-08-19T08:39:18;20.10;76.70
23633;DHT22;11993;48.748;9.166;2022-08-19T08:41:50;20.00;76.70
23633;DHT22;11993;48.748;9.166;2022-08-19T08:47:16;20.00;77.80
23633;DHT22;11993;48.748;9.166;2022-08-19T08:52:35;19.90;77.80
23633;DHT22;11993;48.748;9.166;2022-08-19T08:55:08;20.00;77.90
23633;DHT22;11993;48.748;9.166;2022-08-19T08:57:44;20.00;77.40
23633;DHT22;11993;48.748;9.166;2022-08-19T09:00:38;20.00;77.70
23633;DHT22;11993;48.748;9.166;2022-08-19T09:03:13;20.00;77.50
23633;DHT22;11993;48.748;9.166;2022-08-19T09:06:07;20.10;77.60
23633;DHT22;11993;48.748;9.166;2022-08-19T09:08:40;20.10;77.80
23633;DHT22;11993;48.748;9.166;2022-08-19T09:11:15;20.10;77.80
23633;DHT22;11993;48.748;9.166;2022-08-19T09:13:49;20.10;77.60
23633;DHT22;11993;48.748;9.166;2022-08-19T09:16:19;20.10;78.00
23633;DHT22;11993;48.748;9.166;2022-08-19T09:18:48;20.10;77.90
23633;DHT22;11993;48.748;9.166;2022-08-19T09:21:17;20.10;77.60
23633;DHT22;11993;48.748;9.166;2022-08-19T09:23:43;20.20;77.30
23633;DHT22;11993;48.748;9.166;2022-08-19T09:26:14;20.30;77.20
23633;DHT22;11993;48.748;9.166;2022-08-19T09:28:42;20.30;77.20
23633;DHT22;11993;48.748;9.166;2022-08-19T09:31:10;20.30;76.90
23633;DHT22;11993;48.748;9.166;2022-08-19T09:33:36;20.30;76.80
23633;DHT22;11993;48.748;9.166;2022-08-19T09:36:07;20.40;76.80
23633;DHT22;11993;48.748;9.166;2022-08-19T09:38:34;20.30;76.60
23633;DHT22;11993;48.748;9.166;2022-08-19T09:41:18;20.40;76.70
23633;DHT22;11993;48.748;9.166;2022-08-19T09:43:46;20.40;76.90
23633;DHT22;11993;48.748;9.166;2022-08-19T09:46:11;20.40;76.90
23633;DHT22;11993;48.748;9.166;2022-08-19T09:48:38;20.40;76.60
23633;DHT22;11993;48.748;9.166;2022-08-19T09:51:09;20.40;76.90
23633;DHT22;11993;48.748;9.166;2022-08-19T09:53:36;20.50;77.00
23633;DHT22;11993;48.748;9.166;2022-08-19T09:56:02;20.50;76.60
23633;DHT22;11993;48.748;9.166;2022-08-19T09:58:28;20.60;76.20
23633;DHT22;11993;48.748;9.166;2022-08-19T10:00:56;20.50;76.60
23633;DHT22;11993;48.748;9.166;2022-08-19T10:03:22;20.60;76.30
23633;DHT22;11993;48.748;9.166;2022-08-19T10:05:48;20.60;76.00
23633;DHT22;11993;48.748;9.166;2022-08-19T10:08:36;20.70;75.80
23633;DHT22;11993;48.748;9.166;2022-08-19T10:11:01;20.80;75.40
23633;DHT22;11993;48.748;9.166;2022-08-19T10:13:29;20.70;75.40
23633;DHT22;11993;48.748;9.166;2022-08-19T10:15:57;20.70;75.30
23633;DHT22;11993;48.748;9.166;2022-08-19T10:18:27;20.80;75.60
23633;DHT22;11993;48.748;9.166;2022-08-19T10:20:59;20.90;75.10
23633;DHT22;11993;48.748;9.166;2022-08-19T10:23:26;20.90;74.80
23633;DHT22;11993;48.748;9.166;2022-08-19T10:25:54;20.90;74.80
23633;DHT22;11993;48.748;9.166;2022-08-19T10:28:24;21.00;74.30
23633;DHT22;11993;48.748;9.166;2022-08-19T10:30:49;21.00;74.50
23633;DHT22;11993;48.748;9.166;2022-08-19T10:33:15;21.10;74.50
23633;DHT22;11993;48.748;9.166;2022-08-19T10:35:41;21.10;74.70
23633;DHT22;11993;48.748;9.166;2022-08-19T10:38:06;21.10;74.50
23633;DHT22;11993;48.748;9.166;2022-08-19T10:40:32;21.10;74.10
23633;DHT22;11993;48.748;9.166;2022-08-19T10:42:57;21.20;74.30
23633;DHT22;11993;48.748;9.166;2022-08-19T10:45:24;21.20;74.50
23633;DHT22;11993;48.748;9.166;2022-08-19T10:47:52;21.30;74.30
23633;DHT22;11993;48.748;9.166;2022-08-19T10:50:18;21.20;75.00
23633;DHT22;11993;48.748;9.166;2022-08-19T10:53:07;21.20;74.80
23633;DHT22;11993;48.748;9.166;2022-08-19T10:55:36;21.30;74.60
23633;DHT22;11993;48.748;9.166;2022-08-19T10:58:21;21.30;74.30
23633;DHT22;11993;48.748;9.166;2022-08-19T11:00:57;21.30;73.70
23633;DHT22;11993;48.748;9.166;2022-08-19T11:03:23;21.50;73.20
23633;DHT22;11993;48.748;9.166;2022-08-19T11:06:03;21.50;73.30
23633;DHT22;11993;48.748;9.166;2022-08-19T11:08:30;21.40;72.80
23633;DHT22;11993;48.748;9.166;2022-08-19T11:10:59;21.50;72.50
23633;DHT22;11993;48.748;9.166;2022-08-19T11:13:31;21.50;72.20
23633;DHT22;11993;48.748;9.166;2022-08-19T11:16:00;21.40;72.10
23633;DHT22;11993;48.748;9.166;2022-08-19T11:18:26;21.40;72.10
23633;DHT22;11993;48.748;9.166;2022-08-19T11:20:52;21.40;71.90
23633;DHT22;11993;48.748;9.166;2022-08-19T11:23:18;21.40;71.90
23633;DHT22;11993;48.748;9.166;2022-08-19T11:25:44;21.40;72.00
23633;DHT22;11993;48.748;9.166;2022-08-19T11:28:11;21.50;71.60
23633;DHT22;11993;48.748;9.166;2022-08-19T11:30:38;21.60;71.70
23633;DHT22;11993;48.748;9.166;2022-08-19T11:33:04;21.60;71.70
23633;DHT22;11993;48.748;9.166;2022-08-19T11:35:29;21.60;71.60
23633;DHT22;11993;48.748;9.166;2022-08-19T11:37:55;21.70;71.30
23633;DHT22;11993;48.748;9.166;2022-08-19T11:40:26;21.80;70.50
23633;DHT22;11993;48.748;9.166;2022-08-19T11:42:52;21.90;70.90
23633;DHT22;11993;48.748;9.166;2022-08-19T11:45:25;21.90;70.00
23633;DHT22;11993;48.748;9.166;2022-08-19T11:47:52;22.00;70.60
23633;DHT22;11993;48.748;9.166;2022-08-19T11:50:18;22.00;70.00
23633;DHT22;11993;48.748;9.166;2022-08-19T11:52:44;22.00;70.40
23633;DHT22;11993;48.748;9.166;2022-08-19T11:55:11;22.00;69.90
23633;DHT22;11993;48.748;9.166;2022-08-19T11:57:37;22.00;69.50
23633;DHT22;11993;48.748;9.166;2022-08-19T12:00:03;22.00;69.70
23633;DHT22;11993;48.748;9.166;2022-08-19T12:02:31;22.10;69.10
23633;DHT22;11993;48.748;9.166;2022-08-19T12:04:57;22.20;68.50
23633;DHT22;11993;48.748;9.166;2022-08-19T12:07:22;22.30;67.90
23633;DHT22;11993;48.748;9.166;2022-08-19T12:09:48;22.30;67.80
23633;DHT22;11993;48.748;9.166;2022-08-19T12:12:14;22.40;67.40
23633;DHT22;11993;48.748;9.166;2022-08-19T12:14:39;22.40;67.40
23633;DHT22;11993;48.748;9.166;2022-08-19T12:17:05;22.50;67.10
23633;DHT22;11993;48.748;9.166;2022-08-19T12:19:33;22.40;67.20
23633;DHT22;11993;48.748;9.166;2022-08-19T12:22:00;22.40;67.00
23633;DHT22;11993;48.748;9.166;2022-08-19T12:24:32;22.40;66.70
23633;DHT22;11993;48.748;9.166;2022-08-19T12:26:58;22.40;67.00
23633;DHT22;11993;48.748;9.166;2022-08-19T12:29:27;22.40;66.70
23633;DHT22;11993;48.748;9.166;2022-08-19T12:31:55;22.40;67.10
23633;DHT22;11993;48.748;9.166;2022-08-19T12:34:27;22.50;67.30
23633;DHT22;11993;48.748;9.166;2022-08-19T12:36:56;22.50;66.90
23633;DHT22;11993;48.748;9.166;2022-08-19T12:39:21;22.50;66.50
23633;DHT22;11993;48.748;9.166;2022-08-19T12:41:47;22.50;66.90
23633;DHT22;11993;48.748;9.166;2022-08-19T12:44:14;22.50;67.10
23633;DHT22;11993;48.748;9.166;2022-08-19T12:46:40;22.50;67.50
23633;DHT22;11993;48.748;9.166;2022-08-19T12:49:05;22.40;67.90
23633;DHT22;11993;48.748;9.166;2022-08-19T12:51:31;22.40;68.50
23633;DHT22;11993;48.748;9.166;2022-08-19T12:53:57;22.20;73.80
23633;DHT22;11993;48.748;9.166;2022-08-19T12:56:22;21.90;75.90
23633;DHT22;11993;48.748;9.166;2022-08-19T12:58:48;21.80;76.50
23633;DHT22;11993;48.748;9.166;2022-08-19T13:01:15;21.80;76.60
23633;DHT22;11993;48.748;9.166;2022-08-19T13:03:41;21.60;76.60
23633;DHT22;11993;48.748;9.166;2022-08-19T13:06:09;21.50;77.10
23633;DHT22;11993;48.748;9.166;2022-08-19T13:08:35;21.40;78.30
23633;DHT22;11993;48.748;9.166;2022-08-19T13:11:11;21.30;78.60
23633;DHT22;11993;48.748;9.166;2022-08-19T13:13:40;21.20;79.50
23633;DHT22;11993;48.748;9.166;2022-08-19T13:16:07;21.30;79.80
23633;DHT22;11993;48.748;9.166;2022-08-19T13:18:33;21.40;80.30
23633;DHT22;11993;48.748;9.166;2022-08-19T13:21:03;21.30;80.50
23633;DHT22;11993;48.748;9.166;2022-08-19T13:23:29;21.20;81.10
23633;DHT22;11993;48.748;9.166;2022-08-19T13:25:59;21.10;81.80
23633;DHT22;11993;48.748;9.166;2022-08-19T13:28:25;21.00;82.20
23633;DHT22;11993;48.748;9.166;2022-08-19T13:30:51;21.00;82.40
23633;DHT22;11993;48.748;9.166;2022-08-19T13:33:35;20.90;82.40
23633;DHT22;11993;48.748;9.166;2022-08-19T13:36:01;20.90;82.60
23633;DHT22;11993;48.748;9.166;2022-08-19T13:38:27;20.90;82.70
23633;DHT22;11993;48.748;9.166;2022-08-19T13:40:54;20.60;83.20
23633;DHT22;11993;48.748;9.166;2022-08-19T13:43:23;20.60;83.30
23633;DHT22;11993;48.748;9.166;2022-08-19T13:45:51;20.60;83.30
23633;DHT22;11993;48.748;9.166;2022-08-19T13:48:19;20.60;83.10
23633;DHT22;11993;48.748;9.166;2022-08-19T13:50:45;20.60;83.20
23633;DHT22;11993;48.748;9.166;2022-08-19T13:53:12;20.60;83.10
23633;DHT22;11993;48.748;9.166;2022-08-19T13:55:39;20.50;83.40
23633;DHT22;11993;48.748;9.166;2022-08-19T13:58:05;20.40;83.50
23633;DHT22;11993;48.748;9.166;2022-08-19T14:00:34;20.30;83.90
23633;DHT22;11993;48.748;9.166;2022-08-19T14:03:01;20.20;84.20
23633;DHT22;11993;48.748;9.166;2022-08-19T14:05:29;20.20;84.00
23633;DHT22;11993;48.748;9.166;2022-08-19T14:07:55;20.10;84.20
23633;DHT22;11993;48.748;9.166;2022-08-19T14:10:21;20.10;84.20
23633;DHT22;11993;48.748;9.166;2022-08-19T14:12:48;20.00;84.20
23633;DHT22;11993;48.748;9.166;2022-08-19T14:15:14;20.10;84.30
23633;DHT22;11993;48.748;9.166;2022-08-19T14:17:42;20.00;84.00
23633;DHT22;11993;48.748;9.166;2022-08-19T14:20:10;20.00;84.50
23633;DHT22;11993;48.748;9.166;2022-08-19T14:22:37;20.10;84.30
23633;DHT22;11993;48.748;9.166;2022-08-19T14:25:17;20.10;84.10
23633;DHT22;11993;48.748;9.166;2022-08-19T14:27:44;20.10;83.80
23633;DHT22;11993;48.748;9.166;2022-08-19T14:30:13;20.20;83.50
23633;DHT22;11993;48.748;9.166;2022-08-19T14:32:39;20.10;83.70
23633;DHT22;11993;48.748;9.166;2022-08-19T14:35:06;20.20;83.90
23633;DHT22;11993;48.748;9.166;2022-08-19T14:37:33;20.20;83.30
23633;DHT22;11993;48.748;9.166;2022-08-19T14:39:59;20.20;83.50
23633;DHT22;11993;48.748;9.166;2022-08-19T14:42:25;20.20;83.40
23633;DHT22;11993;48.748;9.166;2022-08-19T14:44:50;20.40;83.00
23633;DHT22;11993;48.748;9.166;2022-08-19T14:47:16;20.30;83.30
23633;DHT22;11993;48.748;9.166;2022-08-19T14:49:42;20.50;82.90
23633;DHT22;11993;48.748;9.166;2022-08-19T14:52:07;20.60;82.50
23633;DHT22;11993;48.748;9.166;2022-08-19T14:54:33;20.70;81.20
23633;DHT22;11993;48.748;9.166;2022-08-19T14:56:59;20.50;80.90
23633;DHT22;11993;48.748;9.166;2022-08-19T14:59:24;20.50;81.30
23633;DHT22;11993;48.748;9.166;2022-08-19T15:01:50;20.60;80.70
23633;DHT22;11993;48.748;9.166;2022-08-19T15:04:15;20.60;80.20
23633;DHT22;11993;48.748;9.166;2022-08-19T15:06:41;20.60;80.10
23633;DHT22;11993;48.748;9.166;2022-08-19T15:09:08;20.60;80.20
23633;DHT22;11993;48.748;9.166;2022-08-19T15:11:33;20.60;80.30
23633;DHT22;11993;48.748;9.166;2022-08-19T15:13:59;20.70;80.20
23633;DHT22;11993;48.748;9.166;2022-08-19T15:16:27;20.80;80.10
23633;DHT22;11993;48.748;9.166;2022-08-19T15:18:55;21.10;79.70
23633;DHT22;11993;48.748;9.166;2022-08-19T15:21:24;21.10;79.50
23633;DHT22;11993;48.748;9.166;2022-08-19T15:23:50;21.20;79.40
23633;DHT22;11993;48.748;9.166;2022-08-19T15:26:17;21.30;79.30
23633;DHT22;11993;48.748;9.166;2022-08-19T15:28:43;21.20;79.40
23633;DHT22;11993;48.748;9.166;2022-08-19T15:31:09;21.30;79.20
23633;DHT22;11993;48.748;9.166;2022-08-19T15:33:38;21.40;79.00
23633;DHT22;11993;48.748;9.166;2022-08-19T15:36:09;21.40;79.00
23633;DHT22;11993;48.748;9.166;2022-08-19T15:38:38;21.40;79.10
23633;DHT22;11993;48.748;9.166;2022-08-19T15:41:04;21.40;78.80
23633;DHT22;11993;48.748;9.166;2022-08-19T15:43:51;21.50;78.50